Time;durP1;ratioP1;P1;durP2;ratioP2;P2;SDS_P1;SDS_P2;PMS_P1;PMS_P2;Temp;Humidity;BMP_temperature;BMP_pressure;BME280_temperature;BME280_humidity;BME280_pressure;Samples;Min_cycle;Max_cycle;Signal;HPM_P1;HPM_P2
2024/03/05 00:02:14;;;;;;;17.30;12.30;;;3.80;99.90;;;;;;4945102;28;20042;-85
2024/03/05 00:04:40;;;;;;;21.23;12.55;;;3.80;99.90;;;;;;4940140;28;20027;-83
2024/03/05 00:07:07;;;;;;;17.05;11.82;;;3.80;99.90;;;;;;4942735;28;20029;-85
2024/03/05 00:09:33;;;;;;;21.15;12.98;;;3.80;99.90;;;;;;4969678;28;21445;-85
2024/03/05 00:11:58;;;;;;;16.77;11.88;;;3.80;99.90;;;;;;4964545;28;20466;-84
2024/03/05 00:14:24;;;;;;;20.85;12.40;;;3.80;99.90;;;;;;4954031;28;20125;-85
2024/03/05 00:16:50;;;;;;;16.95;11.38;;;3.80;99.90;;;;;;4951607;28;20042;-85
2024/03/05 00:19:16;;;;;;;20.88;12.32;;;3.70;99.90;;;;;;4947933;28;20355;-85
2024/03/05 00:21:42;;;;;;;19.85;12.57;;;3.70;99.90;;;;;;4986311;28;20012;-87
2024/03/05 00:24:07;;;;;;;26.15;12.60;;;3.70;99.90;;;;;;4977603;28;20096;-84
2024/03/05 00:26:33;;;;;;;18.98;12.23;;;3.70;99.90;;;;;;4945837;28;20383;-85
2024/03/05 00:29:02;;;;;;;21.80;11.95;;;3.70;99.90;;;;;;4956631;28;20023;-84
2024/03/05 00:31:28;;;;;;;20.10;11.38;;;3.70;99.90;;;;;;4950405;28;20482;-83
2024/03/05 00:33:54;;;;;;;23.83;12.75;;;3.70;99.90;;;;;;4947068;28;20022;-82
2024/03/05 00:36:20;;;;;;;19.83;10.80;;;3.70;99.90;;;;;;4988681;28;20042;-84
2024/03/05 00:38:45;;;;;;;24.77;11.68;;;3.70;99.90;;;;;;4974429;28;20145;-84
2024/03/05 00:41:11;;;;;;;24.83;11.65;;;3.70;99.90;;;;;;4959179;28;20026;-86
2024/03/05 00:43:36;;;;;;;21.88;12.25;;;3.60;99.90;;;;;;4950767;28;20015;-83
2024/03/05 00:46:02;;;;;;;19.23;12.10;;;3.70;99.90;;;;;;4971157;28;20649;-83
2024/03/05 00:48:28;;;;;;;19.30;11.25;;;3.70;99.90;;;;;;4975289;28;20041;-85
2024/03/05 00:50:53;;;;;;;22.35;11.65;;;3.70;99.90;;;;;;4961701;28;20018;-85
2024/03/05 00:53:20;;;;;;;19.42;12.55;;;3.70;99.90;;;;;;4955789;28;20038;-84
2024/03/05 00:55:46;;;;;;;20.95;12.85;;;3.70;99.90;;;;;;4952198;28;20100;-85
2024/03/05 00:58:12;;;;;;;20.25;11.25;;;3.70;99.90;;;;;;4948188;28;22297;-85
2024/03/05 01:00:38;;;;;;;20.08;12.32;;;3.70;99.90;;;;;;4976508;28;20030;-84
2024/03/05 01:03:04;;;;;;;19.33;11.45;;;3.70;99.90;;;;;;4971766;28;20491;-83
2024/03/05 01:05:29;;;;;;;16.05;12.23;;;3.60;99.90;;;;;;4947825;28;20038;-83
2024/03/05 01:07:55;;;;;;;24.67;12.48;;;3.70;99.90;;;;;;4947036;28;20029;-84
2024/03/05 01:10:21;;;;;;;17.27;11.98;;;3.70;99.90;;;;;;4942979;28;20022;-85
2024/03/05 01:12:46;;;;;;;19.60;10.50;;;3.60;99.90;;;;;;4962041;28;20022;-84
2024/03/05 01:15:12;;;;;;;18.95;12.00;;;3.70;99.90;;;;;;4958774;28;20028;-84
2024/03/05 01:17:39;;;;;;;17.13;11.57;;;3.70;99.90;;;;;;4956085;28;20393;-84
2024/03/05 01:20:10;;;;;;;17.95;12.18;;;3.70;99.90;;;;;;4949009;28;20022;-85
2024/03/05 01:22:36;;;;;;;17.05;11.80;;;3.70;99.90;;;;;;4939438;28;20101;-85
2024/03/05 01:25:02;;;;;;;16.30;11.55;;;3.70;99.90;;;;;;4938699;28;20125;-85
2024/03/05 01:27:27;;;;;;;21.48;12.73;;;3.60;99.90;;;;;;4957386;28;20459;-84
2024/03/05 01:29:53;;;;;;;19.33;11.18;;;3.70;99.90;;;;;;4973033;28;20030;-83
2024/03/05 01:32:19;;;;;;;17.75;11.43;;;3.70;99.90;;;;;;4949255;28;20039;-84
2024/03/05 01:34:47;;;;;;;18.95;11.43;;;3.70;99.90;;;;;;4928382;28;20065;-84
2024/03/05 01:37:13;;;;;;;18.58;11.52;;;3.70;99.90;;;;;;4941740;28;20027;-84
2024/03/05 01:39:38;;;;;;;17.60;11.38;;;3.70;99.90;;;;;;4986508;28;20026;-86
2024/03/05 01:42:07;;;;;;;17.98;11.40;;;3.70;99.90;;;;;;4957839;28;20026;-86
2024/03/05 01:44:33;;;;;;;17.00;11.55;;;3.70;99.90;;;;;;4945809;28;20027;-83
2024/03/05 01:46:59;;;;;;;16.98;10.88;;;3.70;99.90;;;;;;4951293;28;20026;-84
2024/03/05 01:49:26;;;;;;;20.98;12.13;;;3.70;99.90;;;;;;4943232;28;20029;-85
2024/03/05 01:51:54;;;;;;;18.00;10.13;;;3.70;99.90;;;;;;4947772;28;20046;-84
2024/03/05 01:54:22;;;;;;;22.80;11.93;;;3.70;99.90;;;;;;4964720;28;20037;-84
2024/03/05 01:56:50;;;;;;;16.85;11.32;;;3.70;99.90;;;;;;4975660;28;20026;-83
2024/03/05 01:59:17;;;;;;;15.93;11.20;;;3.80;99.90;;;;;;4967118;28;20390;-84
2024/03/05 02:01:43;;;;;;;23.48;11.82;;;3.80;99.90;;;;;;4952220;28;20023;-85
2024/03/05 02:04:10;;;;;;;16.38;10.68;;;3.80;99.90;;;;;;4946261;28;20573;-83
2024/03/05 02:06:38;;;;;;;17.42;11.38;;;3.70;99.90;;;;;;4968141;28;22171;-83
2024/03/05 02:09:08;;;;;;;21.55;12.40;;;3.70;99.90;;;;;;4967842;28;20271;-82
2024/03/05 02:11:35;;;;;;;16.92;11.98;;;3.70;99.90;;;;;;4959431;28;20030;-82
2024/03/05 02:14:00;;;;;;;16.17;11.27;;;3.80;99.90;;;;;;4964685;28;20505;-83
2024/03/05 02:16:26;;;;;;;18.23;12.27;;;3.80;99.90;;;;;;4975869;28;20065;-84
2024/03/05 02:18:51;;;;;;;23.33;12.95;;;3.80;99.90;;;;;;4949519;28;20041;-83
2024/03/05 02:21:21;;;;;;;23.17;11.48;;;3.80;99.90;;;;;;4956776;28;20096;-81
2024/03/05 02:23:47;;;;;;;22.80;12.25;;;3.80;99.90;;;;;;4969504;28;20054;-83
2024/03/05 02:26:13;;;;;;;22.33;11.65;;;3.70;99.90;;;;;;4960578;28;21595;-82
2024/03/05 02:28:39;;;;;;;23.30;11.65;;;3.70;99.90;;;;;;4949639;28;20031;-83
2024/03/05 02:31:06;;;;;;;23.02;12.45;;;3.70;99.90;;;;;;4931370;28;20046;-82
2024/03/05 02:33:34;;;;;;;20.65;12.50;;;3.70;99.90;;;;;;4933520;28;20158;-83
2024/03/05 02:35:59;;;;;;;18.45;12.15;;;3.70;99.90;;;;;;4968095;28;20049;-82
2024/03/05 02:38:26;;;;;;;19.67;12.35;;;3.70;99.90;;;;;;4957674;28;20022;-83
2024/03/05 02:40:51;;;;;;;17.27;10.52;;;3.70;99.90;;;;;;4959032;28;20109;-81
2024/03/05 02:43:17;;;;;;;16.95;12.05;;;3.70;99.90;;;;;;4952240;28;20019;-84
2024/03/05 02:45:42;;;;;;;21.02;12.27;;;3.70;99.90;;;;;;4948349;28;20035;-85
2024/03/05 02:48:09;;;;;;;20.75;11.50;;;3.80;99.90;;;;;;4950823;28;20053;-84
2024/03/05 02:50:35;;;;;;;16.10;11.02;;;3.70;99.90;;;;;;4940602;28;20038;-82
2024/03/05 02:53:00;;;;;;;19.60;11.40;;;3.70;99.90;;;;;;4946010;28;20040;-84
2024/03/05 02:55:27;;;;;;;15.55;11.30;;;3.70;99.90;;;;;;4952614;28;20030;-83
2024/03/05 02:57:53;;;;;;;17.05;11.20;;;3.70;99.90;;;;;;4949828;28;20014;-84
2024/03/05 03:00:19;;;;;;;18.15;10.95;;;3.70;99.90;;;;;;4925348;28;20046;-83
2024/03/05 03:02:48;;;;;;;17.90;10.80;;;3.70;99.90;;;;;;4958166;28;20018;-84
2024/03/05 03:05:16;;;;;;;20.15;11.82;;;3.70;99.90;;;;;;4948733;28;20034;-83
2024/03/05 03:07:43;;;;;;;22.60;11.70;;;3.60;99.90;;;;;;4955705;28;20050;-84
2024/03/05 03:10:11;;;;;;;21.75;10.90;;;3.60;99.90;;;;;;4931143;28;20027;-85
2024/03/05 03:12:37;;;;;;;17.02;10.55;;;3.60;99.90;;;;;;4928437;28;21839;-84
2024/03/05 03:15:03;;;;;;;16.85;10.35;;;3.60;99.90;;;;;;4962031;28;20032;-83
2024/03/05 03:17:29;;;;;;;16.15;10.80;;;3.60;99.90;;;;;;4952569;28;20022;-83
2024/03/05 03:19:56;;;;;;;17.13;10.93;;;3.60;99.90;;;;;;4939822;28;20018;-81
2024/03/05 03:22:21;;;;;;;15.93;11.52;;;3.60;99.90;;;;;;4956090;28;20168;-82
2024/03/05 03:24:47;;;;;;;18.80;11.68;;;3.60;99.90;;;;;;4921323;28;20019;-83
2024/03/05 03:27:13;;;;;;;19.00;11.20;;;3.50;99.90;;;;;;4932954;28;20026;-83
2024/03/05 03:29:40;;;;;;;15.27;10.57;;;3.60;99.90;;;;;;4960591;28;20068;-83
2024/03/05 03:32:10;;;;;;;14.93;10.43;;;3.50;99.90;;;;;;4946435;28;20121;-82
2024/03/05 03:34:40;;;;;;;18.60;11.68;;;3.60;99.90;;;;;;4962524;28;20022;-82
2024/03/05 03:37:07;;;;;;;18.58;11.07;;;3.60;99.90;;;;;;4934281;28;20110;-82
2024/03/05 03:39:32;;;;;;;20.35;11.70;;;3.60;99.90;;;;;;4921610;28;21511;-83
2024/03/05 03:41:58;;;;;;;16.45;10.68;;;3.50;99.90;;;;;;4969403;28;20033;-82
2024/03/05 03:44:24;;;;;;;22.70;12.27;;;3.60;99.90;;;;;;4950734;28;20521;-82
2024/03/05 03:46:52;;;;;;;18.63;12.02;;;3.50;99.90;;;;;;4893834;28;1581871;-82
2024/03/05 03:49:24;;;;;;;16.88;10.75;;;3.60;99.90;;;;;;4935790;28;20014;-81
2024/03/05 03:51:50;;;;;;;15.18;10.43;;;3.50;99.90;;;;;;4933846;28;20041;-84
2024/03/05 03:54:16;;;;;;;19.60;12.07;;;3.50;99.90;;;;;;4946134;28;20026;-82
2024/03/05 03:56:42;;;;;;;21.05;12.30;;;3.60;99.90;;;;;;4963880;28;20407;-83
2024/03/05 03:59:07;;;;;;;16.95;11.45;;;3.60;99.90;;;;;;4959784;28;20054;-82
2024/03/05 04:01:34;;;;;;;21.58;12.63;;;3.60;99.90;;;;;;4962700;28;20037;-82
2024/03/05 04:04:00;;;;;;;13.90;10.52;;;3.60;99.90;;;;;;4920454;28;20018;-82
2024/03/05 04:06:26;;;;;;;17.08;10.48;;;3.50;99.90;;;;;;4915432;28;20398;-82
2024/03/05 04:08:52;;;;;;;16.48;10.98;;;3.50;99.90;;;;;;4945824;28;20034;-83
2024/03/05 04:11:17;;;;;;;20.77;11.07;;;3.50;99.90;;;;;;4941634;28;20132;-82
2024/03/05 04:13:43;;;;;;;17.98;11.30;;;3.50;99.90;;;;;;4925305;28;20026;-83
2024/03/05 04:16:09;;;;;;;21.73;11.75;;;3.50;99.90;;;;;;4921000;28;20027;-83
2024/03/05 04:18:35;;;;;;;20.38;11.70;;;3.50;99.90;;;;;;4926483;28;21463;-82
2024/03/05 04:21:00;;;;;;;17.27;11.02;;;3.50;99.90;;;;;;4959321;28;20044;-78
2024/03/05 04:23:27;;;;;;;18.90;11.80;;;3.50;99.90;;;;;;4937993;28;20023;-82
2024/03/05 04:25:58;;;;;;;19.40;11.10;;;3.50;99.90;;;;;;4943620;28;20434;-82
2024/03/05 04:28:24;;;;;;;14.90;10.65;;;3.50;99.90;;;;;;4921268;28;20113;-82
2024/03/05 04:30:51;;;;;;;18.35;11.63;;;3.50;99.90;;;;;;4918392;28;20093;-83
2024/03/05 04:33:20;;;;;;;17.75;11.07;;;3.50;99.90;;;;;;4927169;28;20058;-81
2024/03/05 04:35:46;;;;;;;17.13;11.27;;;3.50;99.90;;;;;;4958014;28;20029;-83
2024/03/05 04:38:12;;;;;;;18.45;11.25;;;3.50;99.90;;;;;;4937018;28;20680;-83
2024/03/05 04:40:37;;;;;;;20.92;12.57;;;3.40;99.90;;;;;;4930752;28;20022;-81
2024/03/05 04:43:05;;;;;;;21.90;11.38;;;3.50;99.90;;;;;;4892933;28;20027;-83
2024/03/05 04:45:33;;;;;;;21.38;12.32;;;3.40;99.90;;;;;;4910055;28;21431;-84
2024/03/05 04:47:58;;;;;;;17.05;11.75;;;3.40;99.90;;;;;;4932816;28;20088;-83
2024/03/05 04:50:24;;;;;;;20.83;12.18;;;3.40;99.90;;;;;;4941047;28;20057;-83
2024/03/05 04:52:52;;;;;;;20.85;11.90;;;3.40;99.90;;;;;;4937901;28;20108;-81
2024/03/05 04:55:18;;;;;;;18.88;11.48;;;3.40;99.90;;;;;;4921845;28;20134;-82
2024/03/05 04:57:44;;;;;;;18.10;12.65;;;3.40;99.90;;;;;;4890202;28;20031;-82
2024/03/05 05:00:23;;;;;;;18.50;10.60;;;3.30;99.90;;;;;;4943984;28;20031;-83
2024/03/05 05:02:50;;;;;;;19.75;12.27;;;3.40;99.90;;;;;;4959688;28;20103;-85
2024/03/05 05:05:17;;;;;;;17.60;11.88;;;3.40;99.90;;;;;;4942602;28;21744;-83
2024/03/05 05:07:44;;;;;;;15.85;12.13;;;3.40;99.90;;;;;;4973354;28;20034;-84
2024/03/05 05:10:10;;;;;;;20.50;13.00;;;3.30;99.90;;;;;;4936103;28;20038;-84
2024/03/05 05:12:39;;;;;;;23.67;11.60;;;3.40;99.90;;;;;;4929936;28;21700;-84
2024/03/05 05:15:06;;;;;;;19.15;11.82;;;3.30;99.90;;;;;;4949354;28;20048;-82
2024/03/05 05:17:32;;;;;;;18.90;11.60;;;3.30;99.90;;;;;;4934418;28;20088;-81
2024/03/05 05:19:57;;;;;;;13.52;11.18;;;3.40;99.90;;;;;;4933591;28;20030;-80
2024/03/05 05:22:23;;;;;;;25.70;11.88;;;3.40;99.90;;;;;;4943436;28;20033;-83
2024/03/05 05:24:49;;;;;;;16.58;10.30;;;3.40;99.90;;;;;;4932525;28;20026;-84
2024/03/05 05:27:15;;;;;;;19.65;11.07;;;3.40;99.90;;;;;;4919459;28;20038;-81
2024/03/05 05:29:41;;;;;;;18.75;11.13;;;3.40;99.90;;;;;;4936404;28;20030;-82
2024/03/05 05:32:07;;;;;;;16.65;9.95;;;3.40;99.90;;;;;;4937165;28;20026;-82
2024/03/05 05:34:36;;;;;;;19.13;11.35;;;3.40;99.90;;;;;;4967899;28;20113;-85
2024/03/05 05:37:01;;;;;;;15.25;10.27;;;3.40;99.90;;;;;;4924571;28;20514;-84
2024/03/05 05:39:27;;;;;;;13.40;9.23;;;3.40;99.90;;;;;;4939005;28;20148;-84
2024/03/05 05:41:53;;;;;;;12.90;9.77;;;3.40;99.90;;;;;;4956170;28;20034;-84
2024/03/05 05:44:20;;;;;;;14.80;9.63;;;3.40;99.90;;;;;;4970458;28;20069;-83
2024/03/05 05:46:45;;;;;;;19.38;11.50;;;3.40;99.90;;;;;;4990576;28;20065;-81
2024/03/05 05:49:19;;;;;;;16.55;10.70;;;3.40;99.90;;;;;;4911978;28;20651;-83
2024/03/05 05:51:46;;;;;;;17.55;10.00;;;3.40;99.90;;;;;;4962749;28;20034;-84
2024/03/05 05:54:11;;;;;;;12.90;10.13;;;3.30;99.90;;;;;;4948626;28;20105;-83
2024/03/05 05:56:38;;;;;;;17.70;10.50;;;3.30;99.90;;;;;;4928181;28;20102;-83
2024/03/05 05:59:05;;;;;;;17.20;9.27;;;3.30;99.90;;;;;;4954184;28;20026;-83
2024/03/05 06:01:33;;;;;;;15.25;9.68;;;3.30;99.90;;;;;;4966778;28;21361;-83
2024/03/05 06:03:59;;;;;;;15.65;10.85;;;3.30;99.90;;;;;;4976418;28;20022;-82
2024/03/05 06:06:25;;;;;;;17.65;10.30;;;3.30;99.90;;;;;;4942401;28;20414;-83
2024/03/05 06:08:51;;;;;;;16.05;9.80;;;3.30;99.90;;;;;;4955497;28;20804;-82
2024/03/05 06:11:16;;;;;;;18.08;10.18;;;3.30;99.90;;;;;;4962073;28;20034;-82
2024/03/05 06:13:43;;;;;;;12.60;9.23;;;3.30;99.90;;;;;;4944454;28;20029;-82
2024/03/05 06:16:09;;;;;;;18.73;9.68;;;3.30;99.90;;;;;;4943829;28;20141;-82
2024/03/05 06:18:36;;;;;;;16.52;10.48;;;3.30;99.90;;;;;;4944815;28;20113;-82
2024/03/05 06:21:05;;;;;;;13.68;9.95;;;3.30;99.90;;;;;;4941105;28;20022;-81
2024/03/05 06:23:31;;;;;;;16.85;9.73;;;3.30;99.90;;;;;;4950704;28;20038;-83
2024/03/05 06:25:56;;;;;;;13.63;9.20;;;3.30;99.90;;;;;;4964207;28;20022;-82
2024/03/05 06:28:22;;;;;;;15.65;8.73;;;3.30;99.90;;;;;;4966327;28;21427;-83
2024/03/05 06:30:50;;;;;;;14.90;9.40;;;3.30;99.90;;;;;;4962258;28;20188;-83
2024/03/05 06:33:17;;;;;;;15.32;9.55;;;3.30;99.90;;;;;;4941540;28;20022;-83
2024/03/05 06:35:43;;;;;;;15.63;10.38;;;3.40;99.90;;;;;;4934546;28;20093;-83
2024/03/05 06:38:09;;;;;;;16.52;8.82;;;3.40;99.90;;;;;;4954704;28;21805;-83
2024/03/05 06:40:36;;;;;;;16.60;9.18;;;3.30;99.90;;;;;;4941106;28;21686;-83
2024/03/05 06:43:12;;;;;;;14.63;9.60;;;3.40;99.90;;;;;;4904928;28;20034;-84
2024/03/05 06:45:41;;;;;;;17.00;10.80;;;3.40;99.90;;;;;;4859678;28;20098;-84
2024/03/05 06:48:07;;;;;;;18.50;8.93;;;3.40;99.90;;;;;;4881768;28;20027;-85
2024/03/05 06:50:34;;;;;;;15.27;9.73;;;3.40;99.90;;;;;;4885097;28;20568;-83
2024/03/05 06:58:37;;;;;;;16.42;9.32;;;3.50;99.90;;;;;;4894128;28;20568;-84
2024/03/05 07:01:09;;;;;;;14.90;9.25;;;3.50;99.90;;;;;;4911426;28;20030;-84
2024/03/05 07:03:39;;;;;;;12.88;8.40;;;3.50;99.90;;;;;;4877231;28;20049;-84
2024/03/05 07:06:09;;;;;;;15.30;9.80;;;3.50;99.90;;;;;;4883818;28;20033;-81
2024/03/05 07:08:40;;;;;;;10.55;8.25;;;3.60;99.90;;;;;;4876468;28;20180;-83
2024/03/05 07:11:09;;;;;;;14.35;9.23;;;3.60;99.90;;;;;;4928509;28;20425;-84
2024/03/05 07:13:40;;;;;;;14.15;8.60;;;3.60;99.90;;;;;;4958298;28;21645;-84
2024/03/05 07:16:13;;;;;;;17.10;8.75;;;3.60;99.90;;;;;;4948967;28;20509;-83
2024/03/05 07:18:39;;;;;;;14.30;8.90;;;3.60;99.90;;;;;;4919096;28;20042;-85
2024/03/05 07:21:07;;;;;;;17.73;9.15;;;3.60;99.90;;;;;;4909013;28;20030;-82
2024/03/05 07:23:33;;;;;;;15.50;7.85;;;3.60;99.90;;;;;;4925724;28;20018;-82
2024/03/05 07:26:01;;;;;;;13.38;9.10;;;3.60;99.90;;;;;;4886834;28;20022;-82
2024/03/05 07:28:27;;;;;;;16.90;9.38;;;3.60;99.90;;;;;;4954114;28;20022;-85
2024/03/05 07:30:53;;;;;;;12.48;8.20;;;3.60;99.90;;;;;;4964361;28;20092;-85
2024/03/05 07:33:20;;;;;;;13.35;8.57;;;3.50;99.90;;;;;;4909400;28;20081;-84
2024/03/05 07:35:46;;;;;;;13.82;7.85;;;3.50;99.90;;;;;;4928833;28;20069;-84
2024/03/05 07:38:15;;;;;;;13.10;7.78;;;3.50;99.90;;;;;;4904322;28;21611;-84
2024/03/05 07:40:45;;;;;;;12.50;9.65;;;3.50;99.90;;;;;;4929591;28;20037;-84
2024/03/05 07:43:11;;;;;;;12.88;8.18;;;3.50;99.90;;;;;;4922406;28;20033;-81
2024/03/05 07:45:36;;;;;;;14.38;7.68;;;3.50;99.90;;;;;;4876217;28;20379;-84
2024/03/05 07:48:02;;;;;;;10.13;7.40;;;3.50;99.90;;;;;;4890049;28;20364;-83
2024/03/05 07:50:29;;;;;;;12.98;7.85;;;3.60;99.90;;;;;;4873585;28;20253;-84
2024/03/05 07:52:57;;;;;;;16.42;7.63;;;3.60;99.90;;;;;;4896744;28;20117;-83
2024/03/05 07:55:24;;;;;;;8.65;7.30;;;3.60;99.90;;;;;;4926862;28;20125;-83
2024/03/05 07:57:52;;;;;;;13.18;7.07;;;3.60;99.90;;;;;;4888153;28;21190;-83
2024/03/05 08:00:20;;;;;;;12.30;7.32;;;3.60;99.90;;;;;;4867453;28;20067;-82
2024/03/05 08:02:46;;;;;;;11.75;7.07;;;3.70;99.90;;;;;;4869366;28;20019;-84
2024/03/05 08:05:18;;;;;;;12.65;7.35;;;3.70;99.90;;;;;;4872200;28;22348;-83
2024/03/05 08:08:04;;;;;;;10.45;7.88;;;3.80;99.90;;;;;;4921167;28;20026;-84
2024/03/05 08:10:29;;;;;;;11.63;6.50;;;3.80;99.90;;;;;;4921287;28;20028;-83
2024/03/05 08:12:56;;;;;;;10.98;7.47;;;3.80;99.90;;;;;;4908333;28;20030;-83
2024/03/05 08:15:24;;;;;;;8.32;6.53;;;3.90;99.90;;;;;;4887248;28;20034;-83
2024/03/05 08:17:51;;;;;;;9.90;7.68;;;3.80;99.90;;;;;;4869005;28;20053;-83
2024/03/05 08:20:18;;;;;;;11.88;7.55;;;3.80;99.90;;;;;;4882665;28;21583;-83
2024/03/05 08:22:46;;;;;;;11.10;7.65;;;3.90;99.90;;;;;;4932417;28;20080;-84
2024/03/05 08:25:16;;;;;;;12.90;7.72;;;3.90;99.90;;;;;;4911866;28;20027;-82
2024/03/05 08:27:54;;;;;;;11.15;6.95;;;3.90;99.90;;;;;;4920981;28;20030;-83
2024/03/05 08:30:21;;;;;;;11.95;7.22;;;3.90;99.90;;;;;;4893069;28;20101;-84
2024/03/05 08:32:47;;;;;;;10.13;6.93;;;3.90;99.90;;;;;;4906885;28;20042;-83
2024/03/05 08:35:13;;;;;;;11.27;7.05;;;4.00;99.90;;;;;;4886243;28;21546;-83
2024/03/05 08:37:45;;;;;;;12.32;7.20;;;4.10;99.90;;;;;;4929604;28;20033;-83
2024/03/05 08:40:20;;;;;;;13.18;7.05;;;4.30;99.90;;;;;;4902073;28;20038;-82
2024/03/05 08:42:51;;;;;;;9.95;7.53;;;4.50;99.90;;;;;;4922008;28;20647;-82
2024/03/05 08:45:19;;;;;;;9.60;7.15;;;4.60;99.90;;;;;;4881418;28;20038;-84
2024/03/05 08:47:49;;;;;;;10.10;6.55;;;4.60;99.90;;;;;;4875952;28;20022;-84
2024/03/05 08:50:16;;;;;;;10.95;7.05;;;4.70;99.90;;;;;;4877943;28;21340;-83
2024/03/05 08:52:42;;;;;;;8.55;6.70;;;4.90;99.90;;;;;;4929303;28;20491;-83
2024/03/05 08:55:08;;;;;;;10.63;7.45;;;5.10;99.90;;;;;;4889020;28;20049;-84
2024/03/05 08:57:36;;;;;;;12.68;7.57;;;5.00;99.90;;;;;;4879798;28;20378;-82
2024/03/05 09:00:03;;;;;;;9.35;6.88;;;5.00;99.90;;;;;;4872987;28;20054;-84
2024/03/05 09:02:28;;;;;;;9.02;6.90;;;4.90;99.90;;;;;;4855992;28;20022;-83
2024/03/05 09:04:54;;;;;;;10.68;6.38;;;5.00;99.90;;;;;;4891721;28;20100;-83
2024/03/05 09:07:20;;;;;;;11.30;7.45;;;4.80;99.90;;;;;;4948205;22;20057;-53
2024/03/05 09:09:46;;;;;;;14.70;7.25;;;4.80;99.90;;;;;;4936797;28;20509;-53
2024/03/05 09:12:13;;;;;;;10.75;7.78;;;4.70;99.90;;;;;;4958632;28;20498;-56
2024/03/05 09:14:40;;;;;;;11.57;7.32;;;4.60;99.90;;;;;;4941561;28;20421;-58
2024/03/05 09:17:05;;;;;;;12.38;8.45;;;4.70;99.90;;;;;;4949398;28;20550;-57
2024/03/05 09:19:31;;;;;;;11.32;7.70;;;4.60;99.90;;;;;;4945623;28;21171;-57
2024/03/05 09:21:57;;;;;;;11.05;7.85;;;4.70;99.90;;;;;;4909523;28;20026;-55
2024/03/05 09:24:23;;;;;;;12.20;7.47;;;4.80;99.90;;;;;;4916211;28;20068;-55
2024/03/05 09:26:50;;;;;;;13.20;7.28;;;5.00;99.90;;;;;;4947904;28;20438;-55
2024/03/05 09:29:16;;;;;;;9.50;7.00;;;5.10;99.90;;;;;;4944465;28;21155;-53
2024/03/05 09:31:42;;;;;;;10.05;7.05;;;5.30;99.90;;;;;;4943710;28;20030;-53
2024/03/05 09:34:08;;;;;;;9.98;6.63;;;5.40;99.90;;;;;;4901520;28;20080;-52
2024/03/05 09:36:34;;;;;;;8.40;6.50;;;5.50;99.90;;;;;;4891722;28;20034;-55
2024/03/05 09:38:59;;;;;;;11.65;6.50;;;5.50;99.90;;;;;;4891320;28;20027;-54
2024/03/05 09:41:27;;;;;;;7.93;6.45;;;5.50;99.90;;;;;;4865278;28;20026;-57
2024/03/05 09:43:53;;;;;;;12.02;6.32;;;5.50;99.90;;;;;;4923970;28;20118;-60
2024/03/05 09:46:20;;;;;;;8.40;5.88;;;5.50;99.90;;;;;;4892371;28;20034;-54
2024/03/05 09:48:46;;;;;;;8.40;6.15;;;5.50;99.90;;;;;;4974463;23;20131;-47
2024/03/05 09:51:13;;;;;;;11.65;5.93;;;5.50;99.90;;;;;;4929607;28;20104;-46
2024/03/05 09:53:39;;;;;;;14.63;6.28;;;5.60;99.90;;;;;;4907560;28;20155;-46
2024/03/05 09:56:06;;;;;;;14.93;6.70;;;5.60;99.90;;;;;;4918469;28;20030;-50
2024/03/05 09:58:36;;;;;;;7.90;5.63;;;5.50;99.90;;;;;;4983807;28;21676;-50
2024/03/05 10:01:10;;;;;;;9.77;6.00;;;5.50;99.90;;;;;;4948095;28;20026;-51
2024/03/05 10:03:37;;;;;;;8.43;5.70;;;5.50;99.90;;;;;;4907014;28;20064;-48
2024/03/05 10:06:05;;;;;;;8.20;5.43;;;5.50;99.90;;;;;;4924236;28;20079;-48
2024/03/05 10:08:30;;;;;;;9.30;5.15;;;5.50;99.90;;;;;;4909154;28;20033;-50
2024/03/05 10:11:02;;;;;;;6.65;4.85;;;5.40;99.90;;;;;;4942047;28;20026;-56
2024/03/05 10:13:35;;;;;;;7.25;5.20;;;5.50;99.90;;;;;;4958170;28;20029;-58
2024/03/05 10:16:22;;;;;;;7.47;4.97;;;5.60;99.90;;;;;;4950984;28;20379;-52
2024/03/05 10:18:49;;;;;;;;;;;5.70;99.90;;;;;;4928428;28;20124;-50
2024/03/05 10:21:24;;;;;;;7.43;4.38;;;5.70;99.90;;;;;;4919926;28;19935;-50
2024/03/05 10:24:02;;;;;;;7.22;5.15;;;5.80;99.90;;;;;;4897106;28;20053;-49
2024/03/05 10:26:30;;;;;;;10.02;5.68;;;6.00;99.90;;;;;;4890194;28;20056;-48
2024/03/05 10:29:04;;;;;;;11.02;4.97;;;6.10;99.90;;;;;;4954677;28;20030;-59
2024/03/05 10:31:29;;;;;;;7.78;4.55;;;6.30;99.90;;;;;;4971772;28;20092;-54
2024/03/05 10:33:56;;;;;;;12.02;5.85;;;6.50;99.90;;;;;;4926682;28;20651;-49
2024/03/05 10:36:30;;;;;;;8.07;4.35;;;6.70;99.90;;;;;;4994253;28;20117;-52
2024/03/05 10:38:56;;;;;;;6.22;4.95;;;6.90;99.90;;;;;;4971894;28;20029;-52
2024/03/05 10:41:34;;;;;;;6.97;4.65;;;7.00;99.90;;;;;;4965701;28;20028;-56
2024/03/05 10:44:03;;;;;;;6.07;3.97;;;7.00;99.90;;;;;;4968821;28;20112;-51
2024/03/05 10:46:30;;;;;;;8.23;4.65;;;7.10;99.90;;;;;;4941605;28;20405;-49
2024/03/05 10:49:01;;;;;;;7.57;4.25;;;7.20;99.90;;;;;;4993550;28;20037;-46
2024/03/05 10:51:30;;;;;;;6.35;3.70;;;7.20;99.90;;;;;;4972452;28;20568;-47
2024/03/05 10:54:01;;;;;;;8.13;5.55;;;7.20;99.90;;;;;;4978252;28;20026;-42
2024/03/05 10:56:27;;;;;;;5.60;4.70;;;7.10;99.90;;;;;;4948091;28;20397;-47
2024/03/05 11:01:38;;;;;;;8.05;4.68;;;7.20;99.90;;;;;;4934870;28;21416;-44
2024/03/05 11:04:13;;;;;;;7.95;4.45;;;7.10;99.90;;;;;;4982596;28;20051;-45
2024/03/05 11:06:40;;;;;;;6.72;4.78;;;7.10;99.90;;;;;;4960785;28;20029;-43
2024/03/05 11:09:09;;;;;;;6.13;4.07;;;7.20;99.90;;;;;;4969095;28;20398;-45
2024/03/05 11:11:43;;;;;;;5.82;4.03;;;7.20;99.90;;;;;;4946022;28;20437;-47
2024/03/05 11:14:10;;;;;;;4.82;3.80;;;7.30;99.90;;;;;;4952888;28;20494;-45
2024/03/05 11:16:36;;;;;;;5.93;4.40;;;7.30;99.90;;;;;;4943599;28;20842;-44
2024/03/05 11:19:07;;;;;;;6.40;3.83;;;7.40;99.90;;;;;;4985726;28;20026;-44
2024/03/05 11:21:38;;;;;;;9.02;4.30;;;7.50;99.90;;;;;;4977299;28;20114;-43
2024/03/05 11:24:04;;;;;;;6.82;4.25;;;7.50;99.90;;;;;;4962977;28;20021;-43
2024/03/05 11:26:31;;;;;;;4.80;3.58;;;7.60;99.90;;;;;;4934309;28;20477;-43
2024/03/05 11:29:16;;;;;;;7.53;4.57;;;7.60;99.90;;;;;;4919322;28;20564;-43
2024/03/05 11:31:46;;;;;;;5.60;4.05;;;7.70;99.90;;;;;;4933755;28;20049;-43
2024/03/05 11:34:13;;;;;;;5.00;4.13;;;7.70;99.90;;;;;;4962876;28;20033;-52
2024/03/05 11:36:39;;;;;;;4.82;4.13;;;7.70;99.90;;;;;;4982733;28;20536;-44
2024/03/05 11:39:09;;;;;;;5.53;4.28;;;7.70;99.90;;;;;;4957060;28;20120;-42
2024/03/05 11:41:37;;;;;;;5.55;4.25;;;7.80;99.90;;;;;;4976411;28;20436;-46
2024/03/05 11:44:04;;;;;;;4.90;4.20;;;7.80;99.90;;;;;;4931301;28;20036;-45
2024/03/05 11:46:49;;;;;;;4.63;4.13;;;7.80;99.90;;;;;;4928537;28;20056;-45
2024/03/05 11:49:16;;;;;;;8.10;4.28;;;7.90;99.90;;;;;;4966952;28;20629;-52
2024/03/05 11:51:44;;;;;;;7.47;4.28;;;7.80;99.90;;;;;;4976076;28;20034;-42
2024/03/05 11:54:15;;;;;;;5.03;4.18;;;7.80;99.90;;;;;;4954680;28;20894;-43
2024/03/05 11:56:43;;;;;;;5.88;4.32;;;7.60;99.90;;;;;;4933310;28;20059;-43
2024/03/05 11:59:10;;;;;;;6.05;3.70;;;7.40;99.90;;;;;;4949961;28;20405;-43
2024/03/05 12:01:36;;;;;;;5.70;4.28;;;7.40;99.90;;;;;;4918703;28;21447;-46
2024/03/05 12:04:07;;;;;;;4.88;4.38;;;7.30;99.90;;;;;;4972091;28;20529;-44
2024/03/05 12:06:36;;;;;;;5.75;4.13;;;7.40;99.90;;;;;;4944046;28;20052;-50
2024/03/05 12:09:20;;;;;;;4.97;4.25;;;7.40;99.90;;;;;;4947436;28;20033;-43
2024/03/05 12:12:04;;;;;;;6.55;4.25;;;7.30;99.90;;;;;;4947151;28;20036;-43
2024/03/05 12:14:32;;;;;;;6.43;4.57;;;7.40;99.90;;;;;;4953128;28;20038;-44
2024/03/05 12:17:03;;;;;;;9.38;4.10;;;7.40;99.90;;;;;;4935027;28;20477;-43
2024/03/05 12:19:31;;;;;;;4.22;3.83;;;7.50;99.90;;;;;;4942112;28;20021;-44
2024/03/05 12:22:01;;;;;;;4.88;4.25;;;7.50;99.90;;;;;;4966948;28;22351;-43
2024/03/05 12:24:31;;;;;;;7.25;4.85;;;7.50;99.90;;;;;;4944288;28;20018;-44
2024/03/05 12:26:58;;;;;;;4.95;4.18;;;7.50;99.90;;;;;;4923228;28;20060;-43
2024/03/05 12:29:34;;;;;;;6.88;4.15;;;7.50;99.90;;;;;;4900422;28;20029;-44
2024/03/05 12:32:18;;;;;;;7.90;4.18;;;7.50;99.90;;;;;;4937394;28;20029;-42
2024/03/05 12:34:44;;;;;;;5.13;3.65;;;7.50;99.90;;;;;;4902654;28;20579;-42
2024/03/05 12:37:11;;;;;;;6.97;4.68;;;7.30;99.90;;;;;;4976005;28;20086;-43
2024/03/05 12:39:37;;;;;;;5.15;4.00;;;7.30;99.90;;;;;;4917922;28;20025;-52
2024/03/05 12:42:07;;;;;;;4.75;3.80;;;7.20;99.90;;;;;;4944449;28;20026;-43
2024/03/05 12:44:34;;;;;;;6.65;4.28;;;7.20;99.90;;;;;;4922572;28;20029;-42
2024/03/05 12:47:15;;;;;;;4.93;4.20;;;7.20;99.90;;;;;;4932228;28;20033;-42
2024/03/05 12:49:48;;;;;;;6.78;4.15;;;7.20;99.90;;;;;;4922248;28;22550;-45
2024/03/05 12:52:21;;;;;;;5.38;4.00;;;7.20;99.90;;;;;;4991061;28;20121;-53
2024/03/05 12:55:00;;;;;;;6.32;3.78;;;7.30;99.90;;;;;;4981040;28;20088;-46
2024/03/05 12:57:31;;;;;;;5.88;4.00;;;7.20;99.90;;;;;;4940718;28;20082;-46